Gateway, Arkansas
Current Conditions -  °F | °C
As of 2:57 PM on Thursday 23 Oct 2014 (Local Time) from KROG Reporting Station
Overcast Overcast  
Wind Chill: 14°   Ceiling: 4800
Heat Index: 14°   Visibility: 10mi
Dew Point: 11°   Wind: 7mph
Humidity: 83%   Direction: 180°S
Pressure: 30.15"   Gusts: NA
Location:  36.49°N, 93.93°W
Report Text: KROG 231957Z 18006KT 10SM OVC048 14/11 A3015 RMK AO2 RAE32 SLP207 P0000 T01390111
Loading
Personal Weather Stations






























Interactive Weather Map
Tropical Storm Tracking
New forecast layout! Learn more

10-Day Weather Forecast

Advertisements
Track Severe Weather on mobile